sensor_id;sensor_type;location;lat;lon;timestamp;pressure;altitude;pressure_sealevel;temperature;humidity
69411;BME280;56604;48.652;9.194;2023-05-08T00:02:16;96482.75;;;14.52;98.75
69411;BME280;56604;48.652;9.194;2023-05-08T00:04:41;96479.81;;;14.53;99.24
69411;BME280;56604;48.652;9.194;2023-05-08T00:07:06;96480.06;;;14.47;99.72
69411;BME280;56604;48.652;9.194;2023-05-08T00:09:32;96480.59;;;14.44;99.98
69411;BME280;56604;48.652;9.194;2023-05-08T00:11:57;96489.03;;;14.51;99.63
69411;BME280;56604;48.652;9.194;2023-05-08T00:14:22;96481.91;;;14.61;99.67
69411;BME280;56604;48.652;9.194;2023-05-08T00:16:48;96483.22;;;14.69;98.84
69411;BME280;56604;48.652;9.194;2023-05-08T00:19:13;96480.34;;;14.60;98.47
69411;BME280;56604;48.652;9.194;2023-05-08T00:21:38;96488.00;;;14.67;98.46
69411;BME280;56604;48.652;9.194;2023-05-08T00:24:04;96486.91;;;14.68;97.99
69411;BME280;56604;48.652;9.194;2023-05-08T00:26:29;96489.06;;;14.66;97.76
69411;BME280;56604;48.652;9.194;2023-05-08T00:28:55;96491.47;;;14.57;97.56
69411;BME280;56604;48.652;9.194;2023-05-08T00:31:20;96491.69;;;14.46;98.58
69411;BME280;56604;48.652;9.194;2023-05-08T00:33:45;96489.34;;;14.54;97.96
69411;BME280;56604;48.652;9.194;2023-05-08T00:36:11;96489.06;;;14.56;97.90
69411;BME280;56604;48.652;9.194;2023-05-08T00:38:36;96485.88;;;14.54;98.61
69411;BME280;56604;48.652;9.194;2023-05-08T00:41:02;96483.25;;;14.54;98.62
69411;BME280;56604;48.652;9.194;2023-05-08T00:43:28;96483.78;;;14.56;98.78
69411;BME280;56604;48.652;9.194;2023-05-08T00:45:58;96483.75;;;14.51;99.15
69411;BME280;56604;48.652;9.194;2023-05-08T00:48:27;96492.22;;;14.48;99.25
69411;BME280;56604;48.652;9.194;2023-05-08T00:50:54;96489.59;;;14.43;98.88
69411;BME280;56604;48.652;9.194;2023-05-08T00:53:21;96486.94;;;14.48;99.64
69411;BME280;56604;48.652;9.194;2023-05-08T00:55:48;96485.63;;;14.45;99.33
69411;BME280;56604;48.652;9.194;2023-05-08T00:58:13;96492.22;;;14.43;99.82
69411;BME280;56604;48.652;9.194;2023-05-08T01:00:40;96492.75;;;14.50;99.22
69411;BME280;56604;48.652;9.194;2023-05-08T01:03:08;96492.78;;;14.55;99.23
69411;BME280;56604;48.652;9.194;2023-05-08T01:05:34;96491.97;;;14.59;98.96
69411;BME280;56604;48.652;9.194;2023-05-08T01:07:59;96496.47;;;14.64;98.65
69411;BME280;56604;48.652;9.194;2023-05-08T01:10:32;96498.56;;;14.67;98.27
69411;BME280;56604;48.652;9.194;2023-05-08T01:13:23;96504.94;;;14.66;98.33
69411;BME280;56604;48.652;9.194;2023-05-08T01:16:31;96502.53;;;14.65;98.51
69411;BME280;56604;48.652;9.194;2023-05-08T01:19:12;96508.38;;;14.61;98.37
69411;BME280;56604;48.652;9.194;2023-05-08T01:21:48;96508.13;;;14.58;98.65
69411;BME280;56604;48.652;9.194;2023-05-08T01:24:46;96503.88;;;14.57;98.85
69411;BME280;56604;48.652;9.194;2023-05-08T01:32:41;96507.84;;;14.65;98.56
69411;BME280;56604;48.652;9.194;2023-05-08T01:35:23;96509.69;;;14.64;98.37
69411;BME280;56604;48.652;9.194;2023-05-08T01:38:05;96515.78;;;14.49;98.79
69411;BME280;56604;48.652;9.194;2023-05-08T01:40:55;96515.81;;;14.54;99.82
69411;BME280;56604;48.652;9.194;2023-05-08T01:43:40;96514.50;;;14.52;99.86
69411;BME280;56604;48.652;9.194;2023-05-08T01:46:17;96513.97;;;14.55;99.58
69411;BME280;56604;48.652;9.194;2023-05-08T01:48:59;96520.78;;;14.51;99.19
69411;BME280;56604;48.652;9.194;2023-05-08T01:51:27;96521.34;;;14.53;99.41
69411;BME280;56604;48.652;9.194;2023-05-08T01:54:04;96525.28;;;14.50;99.55
69411;BME280;56604;48.652;9.194;2023-05-08T01:56:30;96519.78;;;14.52;99.68
69411;BME280;56604;48.652;9.194;2023-05-08T01:58:58;96527.94;;;14.66;99.23
69411;BME280;56604;48.652;9.194;2023-05-08T02:01:26;96525.03;;;14.57;99.26
69411;BME280;56604;48.652;9.194;2023-05-08T02:03:54;96519.75;;;14.62;98.98
69411;BME280;56604;48.652;9.194;2023-05-08T02:06:21;96526.38;;;14.65;98.39
69411;BME280;56604;48.652;9.194;2023-05-08T02:08:48;96521.34;;;14.53;98.36
69411;BME280;56604;48.652;9.194;2023-05-08T02:11:15;96522.66;;;14.50;98.54
69411;BME280;56604;48.652;9.194;2023-05-08T02:13:43;96521.88;;;14.39;98.76
69411;BME280;56604;48.652;9.194;2023-05-08T02:16:10;96521.88;;;14.45;99.15
69411;BME280;56604;48.652;9.194;2023-05-08T02:18:38;96523.19;;;14.47;98.67
69411;BME280;56604;48.652;9.194;2023-05-08T02:21:04;96527.97;;;14.40;98.99
69411;BME280;56604;48.652;9.194;2023-05-08T02:23:32;96519.75;;;14.42;99.28
69411;BME280;56604;48.652;9.194;2023-05-08T02:25:58;96522.66;;;14.50;99.01
69411;BME280;56604;48.652;9.194;2023-05-08T02:28:25;96525.03;;;14.31;99.44
69411;BME280;56604;48.652;9.194;2023-05-08T02:30:52;96531.38;;;14.25;100.00
69411;BME280;56604;48.652;9.194;2023-05-08T02:33:18;96532.44;;;14.19;100.00
69411;BME280;56604;48.652;9.194;2023-05-08T02:35:45;96537.75;;;14.19;100.00
69411;BME280;56604;48.652;9.194;2023-05-08T02:38:13;96528.75;;;14.20;100.00
69411;BME280;56604;48.652;9.194;2023-05-08T02:40:44;96528.75;;;14.15;100.00
69411;BME280;56604;48.652;9.194;2023-05-08T02:43:10;96532.19;;;14.10;100.00
69411;BME280;56604;48.652;9.194;2023-05-08T02:45:42;96536.41;;;14.22;100.00
69411;BME280;56604;48.652;9.194;2023-05-08T02:48:21;96524.00;;;14.27;100.00
69411;BME280;56604;48.652;9.194;2023-05-08T02:51:09;96519.22;;;14.45;99.69
69411;BME280;56604;48.652;9.194;2023-05-08T02:53:45;96516.31;;;14.41;99.04
69411;BME280;56604;48.652;9.194;2023-05-08T02:56:39;96526.13;;;14.40;99.23
69411;BME280;56604;48.652;9.194;2023-05-08T02:59:28;96526.38;;;14.29;99.29
69411;BME280;56604;48.652;9.194;2023-05-08T03:04:41;96519.50;;;14.17;99.55
69411;BME280;56604;48.652;9.194;2023-05-08T03:07:09;96521.88;;;14.19;99.55
69411;BME280;56604;48.652;9.194;2023-05-08T03:09:42;96517.91;;;14.16;99.51
69411;BME280;56604;48.652;9.194;2023-05-08T03:12:18;96520.81;;;14.10;99.57
69411;BME280;56604;48.652;9.194;2023-05-08T03:14:57;96522.41;;;14.16;100.00
69411;BME280;56604;48.652;9.194;2023-05-08T03:17:25;96520.84;;;14.15;99.64
69411;BME280;56604;48.652;9.194;2023-05-08T03:19:55;96515.00;;;14.18;99.54
69411;BME280;56604;48.652;9.194;2023-05-08T03:22:21;96522.38;;;14.06;99.72
69411;BME280;56604;48.652;9.194;2023-05-08T03:24:48;96524.00;;;14.12;99.57
69411;BME280;56604;48.652;9.194;2023-05-08T03:27:15;96517.91;;;14.16;99.44
69411;BME280;56604;48.652;9.194;2023-05-08T03:29:40;96521.88;;;14.19;98.94
69411;BME280;56604;48.652;9.194;2023-05-08T03:32:07;96524.00;;;14.27;98.88
69411;BME280;56604;48.652;9.194;2023-05-08T03:34:32;96519.50;;;14.17;99.06
69411;BME280;56604;48.652;9.194;2023-05-08T03:36:58;96525.31;;;14.20;99.21
69411;BME280;56604;48.652;9.194;2023-05-08T03:39:24;96527.97;;;14.30;98.65
69411;BME280;56604;48.652;9.194;2023-05-08T03:41:54;96524.25;;;14.31;98.48
69411;BME280;56604;48.652;9.194;2023-05-08T03:44:20;96517.66;;;14.23;98.92
69411;BME280;56604;48.652;9.194;2023-05-08T03:46:46;96522.13;;;14.23;98.71
69411;BME280;56604;48.652;9.194;2023-05-08T03:49:14;96520.56;;;14.16;99.27
69411;BME280;56604;48.652;9.194;2023-05-08T03:51:42;96526.38;;;14.18;99.91
69411;BME280;56604;48.652;9.194;2023-05-08T03:54:07;96529.81;;;14.19;99.59
69411;BME280;56604;48.652;9.194;2023-05-08T03:56:32;96527.94;;;14.20;99.45
69411;BME280;56604;48.652;9.194;2023-05-08T03:59:19;96527.44;;;14.12;99.92
69411;BME280;56604;48.652;9.194;2023-05-08T04:02:08;96522.94;;;14.13;100.00
69411;BME280;56604;48.652;9.194;2023-05-08T04:04:40;96529.28;;;14.17;100.00
69411;BME280;56604;48.652;9.194;2023-05-08T04:07:34;96534.31;;;14.24;100.00
69411;BME280;56604;48.652;9.194;2023-05-08T04:10:28;96532.97;;;14.36;99.50
69411;BME280;56604;48.652;9.194;2023-05-08T04:13:06;96540.94;;;14.21;99.73
69411;BME280;56604;48.652;9.194;2023-05-08T04:15:37;96540.94;;;14.21;100.00
69411;BME280;56604;48.652;9.194;2023-05-08T04:18:05;96540.13;;;14.21;100.00
69411;BME280;56604;48.652;9.194;2023-05-08T04:20:32;96541.72;;;14.22;100.00
69411;BME280;56604;48.652;9.194;2023-05-08T04:22:58;96545.41;;;14.31;100.00
69411;BME280;56604;48.652;9.194;2023-05-08T04:25:24;96551.47;;;14.31;100.00
69411;BME280;56604;48.652;9.194;2023-05-08T04:27:50;96547.25;;;14.20;100.00
69411;BME280;56604;48.652;9.194;2023-05-08T04:30:17;96556.78;;;14.21;100.00
69411;BME280;56604;48.652;9.194;2023-05-08T04:32:43;96562.06;;;14.31;100.00
69411;BME280;56604;48.652;9.194;2023-05-08T04:35:09;96557.31;;;14.28;100.00
69411;BME280;56604;48.652;9.194;2023-05-08T04:37:34;96560.78;;;14.29;100.00
69411;BME280;56604;48.652;9.194;2023-05-08T04:40:00;96554.69;;;14.44;99.90
69411;BME280;56604;48.652;9.194;2023-05-08T04:42:26;96566.31;;;14.48;98.71
69411;BME280;56604;48.652;9.194;2023-05-08T04:44:52;96564.19;;;14.29;99.41
69411;BME280;56604;48.652;9.194;2023-05-08T04:47:18;96566.81;;;14.14;100.00
69411;BME280;56604;48.652;9.194;2023-05-08T04:49:44;96570.78;;;14.22;100.00
69411;BME280;56604;48.652;9.194;2023-05-08T04:52:09;96572.13;;;14.34;100.00
69411;BME280;56604;48.652;9.194;2023-05-08T04:54:35;96576.63;;;14.44;100.00
69411;BME280;56604;48.652;9.194;2023-05-08T04:57:00;96570.28;;;14.50;99.24
69411;BME280;56604;48.652;9.194;2023-05-08T04:59:26;96569.47;;;14.50;98.99
69411;BME280;56604;48.652;9.194;2023-05-08T05:01:52;96570.81;;;14.62;98.18
69411;BME280;56604;48.652;9.194;2023-05-08T05:04:17;96570.81;;;14.62;98.00
69411;BME280;56604;48.652;9.194;2023-05-08T05:06:43;96579.56;;;14.63;98.00
69411;BME280;56604;48.652;9.194;2023-05-08T05:09:09;96581.69;;;14.61;97.19
69411;BME280;56604;48.652;9.194;2023-05-08T05:11:34;96582.22;;;14.58;97.55
69411;BME280;56604;48.652;9.194;2023-05-08T05:14:00;96581.66;;;14.40;98.60
69411;BME280;56604;48.652;9.194;2023-05-08T05:16:25;96588.25;;;14.28;98.66
69411;BME280;56604;48.652;9.194;2023-05-08T05:18:52;96588.00;;;14.24;99.77
69411;BME280;56604;48.652;9.194;2023-05-08T05:21:17;96580.56;;;14.16;100.00
69411;BME280;56604;48.652;9.194;2023-05-08T05:23:43;96588.53;;;14.42;99.38
69411;BME280;56604;48.652;9.194;2023-05-08T05:26:08;96580.63;;;14.52;99.00
69411;BME280;56604;48.652;9.194;2023-05-08T05:28:33;96581.13;;;14.59;97.79
69411;BME280;56604;48.652;9.194;2023-05-08T05:30:59;96579.53;;;14.73;98.04
69411;BME280;56604;48.652;9.194;2023-05-08T05:33:24;96582.69;;;14.85;96.10
69411;BME280;56604;48.652;9.194;2023-05-08T05:35:50;96588.28;;;14.74;96.28
69411;BME280;56604;48.652;9.194;2023-05-08T05:38:15;96589.09;;;14.74;96.74
69411;BME280;56604;48.652;9.194;2023-05-08T05:40:40;96585.88;;;14.98;95.88
69411;BME280;56604;48.652;9.194;2023-05-08T05:43:05;96591.16;;;14.98;95.66
69411;BME280;56604;48.652;9.194;2023-05-08T05:45:31;96592.78;;;14.83;95.90
69411;BME280;56604;48.652;9.194;2023-05-08T05:47:56;96594.34;;;14.79;95.95
69411;BME280;56604;48.652;9.194;2023-05-08T05:50:21;96600.19;;;14.87;96.97
69411;BME280;56604;48.652;9.194;2023-05-08T05:52:47;96599.66;;;14.74;96.79
69411;BME280;56604;48.652;9.194;2023-05-08T05:55:12;96593.31;;;14.65;97.02
69411;BME280;56604;48.652;9.194;2023-05-08T05:57:38;96600.47;;;14.80;97.56
69411;BME280;56604;48.652;9.194;2023-05-08T06:00:03;96594.88;;;14.76;97.53
69411;BME280;56604;48.652;9.194;2023-05-08T06:02:29;96594.34;;;14.79;97.30
69411;BME280;56604;48.652;9.194;2023-05-08T06:04:55;96589.88;;;14.80;97.51
69411;BME280;56604;48.652;9.194;2023-05-08T06:07:21;96597.03;;;14.74;97.39
69411;BME280;56604;48.652;9.194;2023-05-08T06:09:46;96599.66;;;14.74;97.34
69411;BME280;56604;48.652;9.194;2023-05-08T06:12:12;96598.59;;;14.75;97.59
69411;BME280;56604;48.652;9.194;2023-05-08T06:14:37;96599.63;;;14.79;97.48
69411;BME280;56604;48.652;9.194;2023-05-08T06:17:02;96598.84;;;14.84;96.74
69411;BME280;56604;48.652;9.194;2023-05-08T06:19:28;96597.81;;;14.75;96.90
69411;BME280;56604;48.652;9.194;2023-05-08T06:21:53;96603.09;;;14.75;96.83
69411;BME280;56604;48.652;9.194;2023-05-08T06:24:19;96603.91;;;14.55;97.56
69411;BME280;56604;48.652;9.194;2023-05-08T06:26:44;96609.44;;;14.53;96.93
69411;BME280;56604;48.652;9.194;2023-05-08T06:29:11;96607.59;;;14.59;97.64
69411;BME280;56604;48.652;9.194;2023-05-08T06:31:36;96614.75;;;14.53;97.14
69411;BME280;56604;48.652;9.194;2023-05-08T06:34:01;96615.00;;;14.57;96.79
69411;BME280;56604;48.652;9.194;2023-05-08T06:36:27;96610.25;;;14.59;97.28
69411;BME280;56604;48.652;9.194;2023-05-08T06:38:52;96608.94;;;14.61;96.34
69411;BME280;56604;48.652;9.194;2023-05-08T06:41:17;96617.38;;;14.43;97.67
69411;BME280;56604;48.652;9.194;2023-05-08T06:43:43;96613.69;;;14.70;98.18
69411;BME280;56604;48.652;9.194;2023-05-08T06:46:08;96623.50;;;14.74;96.39
69411;BME280;56604;48.652;9.194;2023-05-08T06:48:33;96617.66;;;14.77;96.82
69411;BME280;56604;48.652;9.194;2023-05-08T06:50:58;96610.50;;;14.83;95.93
69411;BME280;56604;48.652;9.194;2023-05-08T06:53:24;96616.59;;;14.83;95.98
69411;BME280;56604;48.652;9.194;2023-05-08T06:55:50;96616.06;;;14.87;95.86
69411;BME280;56604;48.652;9.194;2023-05-08T06:58:15;96615.53;;;14.90;95.81
69411;BME280;56604;48.652;9.194;2023-05-08T07:00:41;96621.59;;;15.00;95.25
69411;BME280;56604;48.652;9.194;2023-05-08T07:03:06;96620.25;;;15.13;94.92
69411;BME280;56604;48.652;9.194;2023-05-08T07:05:31;96613.91;;;15.09;93.88
69411;BME280;56604;48.652;9.194;2023-05-08T07:07:57;96612.84;;;15.05;95.07
69411;BME280;56604;48.652;9.194;2023-05-08T07:10:22;96614.94;;;15.23;94.23
69411;BME280;56604;48.652;9.194;2023-05-08T07:12:48;96616.22;;;15.31;93.94
69411;BME280;56604;48.652;9.194;2023-05-08T07:15:13;96619.16;;;15.24;94.12
69411;BME280;56604;48.652;9.194;2023-05-08T07:17:39;96614.88;;;15.34;93.32
69411;BME280;56604;48.652;9.194;2023-05-08T07:20:06;96612.53;;;15.32;93.31
69411;BME280;56604;48.652;9.194;2023-05-08T07:22:31;96612.69;;;15.56;92.52
69411;BME280;56604;48.652;9.194;2023-05-08T07:24:57;96614.84;;;15.49;90.84
69411;BME280;56604;48.652;9.194;2023-05-08T07:27:22;96621.25;;;15.27;91.19
69411;BME280;56604;48.652;9.194;2023-05-08T07:29:47;96623.31;;;15.51;90.09
69411;BME280;56604;48.652;9.194;2023-05-08T07:32:13;96635.53;;;15.37;90.69
69411;BME280;56604;48.652;9.194;2023-05-08T07:34:39;96627.09;;;15.19;91.31
69411;BME280;56604;48.652;9.194;2023-05-08T07:37:05;96632.94;;;15.21;93.51
69411;BME280;56604;48.652;9.194;2023-05-08T07:39:30;96632.97;;;15.01;93.40
69411;BME280;56604;48.652;9.194;2023-05-08T07:41:56;96634.56;;;15.02;93.13
69411;BME280;56604;48.652;9.194;2023-05-08T07:44:21;96637.94;;;15.28;92.09
69411;BME280;56604;48.652;9.194;2023-05-08T07:46:47;96633.47;;;15.18;92.53
69411;BME280;56604;48.652;9.194;2023-05-08T07:49:12;96639.25;;;15.41;92.04
69411;BME280;56604;48.652;9.194;2023-05-08T07:51:37;96637.69;;;15.24;91.94
69411;BME280;56604;48.652;9.194;2023-05-08T07:54:04;96639.31;;;15.20;92.71
69411;BME280;56604;48.652;9.194;2023-05-08T07:56:29;96640.38;;;15.09;92.04
69411;BME280;56604;48.652;9.194;2023-05-08T07:58:55;96642.25;;;15.09;93.58
69411;BME280;56604;48.652;9.194;2023-05-08T08:01:20;96648.59;;;15.13;93.04
69411;BME280;56604;48.652;9.194;2023-05-08T08:03:46;96644.91;;;15.09;93.51
69411;BME280;56604;48.652;9.194;2023-05-08T08:06:12;96645.69;;;14.99;95.26
69411;BME280;56604;48.652;9.194;2023-05-08T08:08:38;96650.72;;;14.95;95.31
69411;BME280;56604;48.652;9.194;2023-05-08T08:11:04;96644.13;;;14.77;96.53
69411;BME280;56604;48.652;9.194;2023-05-08T08:13:30;96648.84;;;14.50;96.92
69411;BME280;56604;48.652;9.194;2023-05-08T08:15:56;96650.97;;;14.37;97.86
69411;BME280;56604;48.652;9.194;2023-05-08T08:18:22;96656.75;;;14.24;99.58
69411;BME280;56604;48.652;9.194;2023-05-08T08:20:47;96653.06;;;14.30;99.36
69411;BME280;56604;48.652;9.194;2023-05-08T08:23:12;96648.81;;;14.24;100.00
69411;BME280;56604;48.652;9.194;2023-05-08T08:25:38;96649.91;;;14.44;100.00
69411;BME280;56604;48.652;9.194;2023-05-08T08:28:03;96653.06;;;14.35;100.00
69411;BME280;56604;48.652;9.194;2023-05-08T08:30:28;96662.31;;;14.48;99.25
69411;BME280;56604;48.652;9.194;2023-05-08T08:32:54;96661.53;;;14.37;98.55
69411;BME280;56604;48.652;9.194;2023-05-08T08:35:19;96661.00;;;14.51;99.39
69411;BME280;56604;48.652;9.194;2023-05-08T08:37:45;96655.72;;;14.40;99.52
69411;BME280;56604;48.652;9.194;2023-05-08T08:40:10;96651.47;;;14.45;100.00
69411;BME280;56604;48.652;9.194;2023-05-08T08:42:36;96654.13;;;14.39;99.96
69411;BME280;56604;48.652;9.194;2023-05-08T08:45:01;96657.31;;;14.42;100.00
69411;BME280;56604;48.652;9.194;2023-05-08T08:47:27;96654.44;;;14.74;99.20
69411;BME280;56604;48.652;9.194;2023-05-08T08:49:53;96657.34;;;15.03;97.78
69411;BME280;56604;48.652;9.194;2023-05-08T08:52:46;96656.28;;;14.68;98.37
69411;BME280;56604;48.652;9.194;2023-05-08T08:55:14;96652.84;;;14.62;98.88
69411;BME280;56604;48.652;9.194;2023-05-08T08:57:51;96655.75;;;14.81;97.66
69411;BME280;56604;48.652;9.194;2023-05-08T09:00:20;96654.19;;;14.80;99.42
69411;BME280;56604;48.652;9.194;2023-05-08T09:02:46;96658.94;;;14.73;99.63
69411;BME280;56604;48.652;9.194;2023-05-08T09:05:11;96659.47;;;14.70;99.90
69411;BME280;56604;48.652;9.194;2023-05-08T09:07:37;96663.16;;;14.79;98.81
69411;BME280;56604;48.652;9.194;2023-05-08T09:10:05;96655.50;;;14.98;99.22
69411;BME280;56604;48.652;9.194;2023-05-08T09:12:31;96656.78;;;15.21;96.53
69411;BME280;56604;48.652;9.194;2023-05-08T09:14:56;96654.88;;;15.42;97.88
69411;BME280;56604;48.652;9.194;2023-05-08T09:17:22;96654.38;;;15.40;97.61
69411;BME280;56604;48.652;9.194;2023-05-08T09:19:48;96650.59;;;15.57;97.28
69411;BME280;56604;48.652;9.194;2023-05-08T09:22:14;96656.09;;;15.81;95.82
69411;BME280;56604;48.652;9.194;2023-05-08T09:24:58;96655.47;;;15.99;93.88
69411;BME280;56604;48.652;9.194;2023-05-08T09:27:26;96651.69;;;16.15;90.90
69411;BME280;56604;48.652;9.194;2023-05-08T09:32:28;96654.31;;;16.21;91.09
69411;BME280;56604;48.652;9.194;2023-05-08T09:34:54;96651.63;;;16.26;88.79
69411;BME280;56604;48.652;9.194;2023-05-08T09:37:20;96652.19;;;16.23;89.28
69411;BME280;56604;48.652;9.194;2023-05-08T09:39:45;96654.88;;;16.12;91.61
69411;BME280;56604;48.652;9.194;2023-05-08T09:42:12;96655.41;;;16.14;92.76
69411;BME280;56604;48.652;9.194;2023-05-08T09:44:44;96658.22;;;16.68;88.09
69411;BME280;56604;48.652;9.194;2023-05-08T09:47:17;96662.00;;;16.61;89.87
69411;BME280;56604;48.652;9.194;2023-05-08T09:52:22;96655.25;;;16.79;84.77
69411;BME280;56604;48.652;9.194;2023-05-08T09:57:24;96659.34;;;16.96;85.14
69411;BME280;56604;48.652;9.194;2023-05-08T09:59:50;96656.97;;;16.99;86.35
69411;BME280;56604;48.652;9.194;2023-05-08T10:02:15;96665.59;;;16.76;85.68
69411;BME280;56604;48.652;9.194;2023-05-08T10:04:41;96665.94;;;17.03;83.57
69411;BME280;56604;48.652;9.194;2023-05-08T10:07:06;96665.38;;;16.77;85.25
69411;BME280;56604;48.652;9.194;2023-05-08T10:09:32;96666.66;;;16.40;87.78
69411;BME280;56604;48.652;9.194;2023-05-08T10:11:57;96660.19;;;16.57;86.71
69411;BME280;56604;48.652;9.194;2023-05-08T10:14:23;96666.09;;;16.88;86.49
69411;BME280;56604;48.652;9.194;2023-05-08T10:16:52;96667.06;;;16.97;85.98
69411;BME280;56604;48.652;9.194;2023-05-08T10:19:22;96661.59;;;17.13;82.82
69411;BME280;56604;48.652;9.194;2023-05-08T10:21:53;96673.44;;;16.96;83.10
69411;BME280;56604;48.652;9.194;2023-05-08T10:24:22;96661.16;;;17.05;85.11
69411;BME280;56604;48.652;9.194;2023-05-08T10:27:00;96670.22;;;16.65;85.24
69411;BME280;56604;48.652;9.194;2023-05-08T10:29:33;96667.97;;;16.43;90.05
69411;BME280;56604;48.652;9.194;2023-05-08T10:32:02;96661.84;;;16.82;86.36
69411;BME280;56604;48.652;9.194;2023-05-08T10:34:32;96669.34;;;17.09;87.52
69411;BME280;56604;48.652;9.194;2023-05-08T10:36:58;96666.53;;;17.24;86.78
69411;BME280;56604;48.652;9.194;2023-05-08T10:39:24;96674.03;;;17.46;86.13
69411;BME280;56604;48.652;9.194;2023-05-08T10:41:51;96668.50;;;17.14;86.53
69411;BME280;56604;48.652;9.194;2023-05-08T10:44:17;96667.91;;;17.22;88.03
69411;BME280;56604;48.652;9.194;2023-05-08T10:47:18;96662.59;;;17.22;85.16
69411;BME280;56604;48.652;9.194;2023-05-08T10:49:56;96661.63;;;17.61;85.56
69411;BME280;56604;48.652;9.194;2023-05-08T10:52:36;96660.63;;;17.57;84.77
69411;BME280;56604;48.652;9.194;2023-05-08T10:55:24;96656.31;;;17.61;87.03
69411;BME280;56604;48.652;9.194;2023-05-08T10:58:15;96650.06;;;17.51;87.40
69411;BME280;56604;48.652;9.194;2023-05-08T11:03:28;96657.72;;;17.77;85.56
69411;BME280;56604;48.652;9.194;2023-05-08T11:05:56;96660.69;;;17.51;86.34
69411;BME280;56604;48.652;9.194;2023-05-08T11:08:23;96656.31;;;17.61;86.11
69411;BME280;56604;48.652;9.194;2023-05-08T11:13:40;96654.28;;;17.52;84.61
69411;BME280;56604;48.652;9.194;2023-05-08T11:16:08;96656.31;;;17.07;86.76
69411;BME280;56604;48.652;9.194;2023-05-08T11:18:36;96655.16;;;17.48;84.23
69411;BME280;56604;48.652;9.194;2023-05-08T11:21:04;96652.63;;;17.33;82.99
69411;BME280;56604;48.652;9.194;2023-05-08T11:23:33;96657.03;;;16.89;85.61
69411;BME280;56604;48.652;9.194;2023-05-08T11:26:03;96655.59;;;17.31;85.51
69411;BME280;56604;48.652;9.194;2023-05-08T11:28:36;96658.34;;;17.21;84.41
69411;BME280;56604;48.652;9.194;2023-05-08T11:31:04;96653.03;;;16.92;86.52
69411;BME280;56604;48.652;9.194;2023-05-08T11:33:31;96654.81;;;17.30;85.45
69411;BME280;56604;48.652;9.194;2023-05-08T11:38:39;96647.38;;;17.51;86.59
69411;BME280;56604;48.652;9.194;2023-05-08T11:41:23;96644.28;;;17.68;82.66
69411;BME280;56604;48.652;9.194;2023-05-08T11:46:49;96640.78;;;17.49;81.63
69411;BME280;56604;48.652;9.194;2023-05-08T11:49:16;96647.06;;;17.34;82.19
69411;BME280;56604;48.652;9.194;2023-05-08T11:51:44;96645.25;;;17.00;85.51
69411;BME280;56604;48.652;9.194;2023-05-08T11:54:18;96651.34;;;17.01;87.92
69411;BME280;56604;48.652;9.194;2023-05-08T11:56:50;96642.78;;;17.33;85.65
69411;BME280;56604;48.652;9.194;2023-05-08T11:59:17;96652.13;;;17.30;84.72
69411;BME280;56604;48.652;9.194;2023-05-08T12:01:43;96651.00;;;17.07;83.61
69411;BME280;56604;48.652;9.194;2023-05-08T12:04:11;96646.19;;;17.15;83.33
69411;BME280;56604;48.652;9.194;2023-05-08T12:06:38;96649.41;;;17.12;82.27
69411;BME280;56604;48.652;9.194;2023-05-08T12:09:15;96647.09;;;17.29;84.14
69411;BME280;56604;48.652;9.194;2023-05-08T12:11:42;96644.25;;;17.44;83.27
69411;BME280;56604;48.652;9.194;2023-05-08T12:14:10;96646.06;;;17.73;83.58
69411;BME280;56604;48.652;9.194;2023-05-08T12:16:36;96648.38;;;17.85;82.62
69411;BME280;56604;48.652;9.194;2023-05-08T12:19:10;96646.91;;;17.92;79.82
69411;BME280;56604;48.652;9.194;2023-05-08T12:21:36;96644.41;;;17.82;81.23
69411;BME280;56604;48.652;9.194;2023-05-08T12:24:06;96638.81;;;18.03;83.07
69411;BME280;56604;48.652;9.194;2023-05-08T12:26:37;96639.97;;;17.96;82.07
69411;BME280;56604;48.652;9.194;2023-05-08T12:29:06;96639.06;;;18.58;82.69
69411;BME280;56604;48.652;9.194;2023-05-08T12:31:36;96647.31;;;18.42;80.02
69411;BME280;56604;48.652;9.194;2023-05-08T12:34:03;96648.19;;;18.19;78.92
69411;BME280;56604;48.652;9.194;2023-05-08T12:36:33;96649.66;;;17.87;80.26
69411;BME280;56604;48.652;9.194;2023-05-08T12:44:21;96651.19;;;17.93;80.12
69411;BME280;56604;48.652;9.194;2023-05-08T12:46:52;96643.91;;;18.18;78.94
69411;BME280;56604;48.652;9.194;2023-05-08T12:49:29;96641.84;;;18.15;79.45
69411;BME280;56604;48.652;9.194;2023-05-08T12:52:01;96640.25;;;18.14;79.76
69411;BME280;56604;48.652;9.194;2023-05-08T12:54:40;96645.72;;;18.04;80.40
69411;BME280;56604;48.652;9.194;2023-05-08T12:57:11;96634.28;;;18.41;78.96
69411;BME280;56604;48.652;9.194;2023-05-08T12:59:37;96648.78;;;17.92;79.94
69411;BME280;56604;48.652;9.194;2023-05-08T13:02:02;96648.97;;;17.52;77.11
69411;BME280;56604;48.652;9.194;2023-05-08T13:04:28;96646.50;;;18.04;78.15
69411;BME280;56604;48.652;9.194;2023-05-08T13:06:56;96640.56;;;18.31;80.24
69411;BME280;56604;48.652;9.194;2023-05-08T13:09:22;96640.47;;;18.36;79.52
69411;BME280;56604;48.652;9.194;2023-05-08T13:11:48;96645.25;;;18.72;77.30
69411;BME280;56604;48.652;9.194;2023-05-08T13:14:14;96641.25;;;18.56;77.66
69411;BME280;56604;48.652;9.194;2023-05-08T13:16:45;96639.25;;;18.48;79.18
69411;BME280;56604;48.652;9.194;2023-05-08T13:19:16;96635.94;;;18.18;79.99
69411;BME280;56604;48.652;9.194;2023-05-08T13:21:44;96637.94;;;18.26;77.84
69411;BME280;56604;48.652;9.194;2023-05-08T13:24:15;96637.53;;;18.00;78.22
69411;BME280;56604;48.652;9.194;2023-05-08T13:26:40;96639.66;;;18.55;79.18
69411;BME280;56604;48.652;9.194;2023-05-08T13:29:05;96632.19;;;18.57;76.42
69411;BME280;56604;48.652;9.194;2023-05-08T13:31:31;96629.84;;;18.69;76.13
69411;BME280;56604;48.652;9.194;2023-05-08T13:33:56;96633.44;;;18.78;74.81
69411;BME280;56604;48.652;9.194;2023-05-08T13:36:22;96627.94;;;18.18;77.20
69411;BME280;56604;48.652;9.194;2023-05-08T13:38:47;96625.97;;;18.80;79.34
69411;BME280;56604;48.652;9.194;2023-05-08T13:41:13;96620.41;;;18.25;76.25